Time;durP1;ratioP1;P1;durP2;ratioP2;P2;SDS_P1;SDS_P2;PMS_P1;PMS_P2;Temp;Humidity;BMP_temperature;BMP_pressure;BME280_temperature;BME280_humidity;BME280_pressure;Samples;Min_cycle;Max_cycle;Signal;HPM_P1;HPM_P2
2023/05/30 00:01:22;;;;;;;6.70;4.00;;;;;;;18.47;100.00;100513.55;105890;1251;60255;-88
2023/05/30 00:03:50;;;;;;;5.80;4.90;;;;;;;18.47;100.00;100513.18;106001;1253;72970;-87
2023/05/30 00:06:17;;;;;;;7.30;4.90;;;;;;;18.46;100.00;100505.84;105810;1255;64800;-85
2023/05/30 00:08:44;;;;;;;5.40;4.90;;;;;;;18.47;100.00;100511.05;105871;1256;72549;-85
2023/05/30 00:11:13;;;;;;;5.00;4.50;;;;;;;18.45;100.00;100511.76;105733;1258;61795;-86
2023/05/30 00:13:42;;;;;;;8.10;4.60;;;;;;;18.40;100.00;100511.14;105858;1253;60341;-88
2023/05/30 00:16:10;;;;;;;5.60;4.30;;;;;;;18.35;100.00;100509.87;106026;1254;73032;-85
2023/05/30 00:18:38;;;;;;;8.60;4.20;;;;;;;18.33;100.00;100510.21;105864;1255;63920;-86
2023/05/30 00:21:05;;;;;;;6.50;4.90;;;;;;;18.32;100.00;100508.02;105888;1254;70039;-85
2023/05/30 00:23:35;;;;;;;10.50;5.80;;;;;;;18.30;100.00;100507.17;105868;1257;62021;-87
2023/05/30 00:26:03;;;;;;;7.90;4.90;;;;;;;18.28;100.00;100509.51;105946;1253;60396;-88
2023/05/30 00:28:31;;;;;;;10.10;5.00;;;;;;;18.27;100.00;100507.66;105886;1253;72908;-87
2023/05/30 00:30:58;;;;;;;11.80;4.50;;;;;;;18.24;100.00;100505.41;105927;1256;63966;-85
2023/05/30 00:33:27;;;;;;;7.80;4.60;;;;;;;18.20;100.00;100500.79;105809;1253;72651;-87
2023/05/30 00:35:53;;;;;;;6.90;4.00;;;;;;;18.20;100.00;100497.79;105935;1253;60400;-88
2023/05/30 00:38:20;;;;;;;4.60;3.70;;;;;;;18.19;100.00;100500.51;105862;1256;59630;-86
2023/05/30 00:40:47;;;;;;;6.70;4.30;;;;;;;18.16;100.00;100500.66;105740;1259;73020;-87
2023/05/30 00:43:15;;;;;;;7.00;3.70;;;;;;;18.11;100.00;100502.17;105736;1255;64195;-87
2023/05/30 00:45:42;;;;;;;5.50;4.60;;;;;;;18.07;100.00;100504.86;106026;1253;72752;-89
2023/05/30 00:48:09;;;;;;;6.70;3.90;;;;;;;18.04;100.00;100498.39;105774;1255;61647;-85
2023/05/30 00:50:38;;;;;;;3.90;3.60;;;;;;;18.04;100.00;100499.48;105876;1253;60602;-85
2023/05/30 00:53:05;;;;;;;5.40;4.00;;;;;;;18.00;100.00;100499.26;105797;1253;72971;-87
2023/05/30 00:55:32;;;;;;;5.10;3.90;;;;;;;17.99;100.00;100498.85;105812;1258;63173;-87
2023/05/30 00:57:58;;;;;;;5.50;4.00;;;;;;;17.98;100.00;100504.30;105795;1256;72689;-87
2023/05/30 01:00:26;;;;;;;8.30;3.60;;;;;;;17.95;100.00;100504.61;105879;1253;61807;-88
2023/05/30 01:02:59;;;;;;;4.90;3.30;;;;;;;17.92;100.00;100506.64;105762;1253;60359;-85
2023/05/30 01:05:31;;;;;;;7.60;4.00;;;;;;;17.89;100.00;100508.31;105957;1257;71750;-85
2023/05/30 01:07:58;;;;;;;4.90;4.30;;;;;;;17.88;100.00;100505.24;105944;1254;63943;-87
2023/05/30 01:10:26;;;;;;;4.60;3.80;;;;;;;17.87;100.00;100508.35;105925;1257;72680;-87
2023/05/30 01:13:00;;;;;;;7.60;4.40;;;;;;;17.85;100.00;100506.89;105949;1255;60697;-85
2023/05/30 01:15:37;;;;;;;6.60;4.00;;;;;;;17.84;100.00;100504.36;105830;1254;60804;-84
2023/05/30 01:18:07;;;;;;;7.50;3.60;;;;;;;17.82;100.00;100501.48;107768;1253;71766;-84
2023/05/30 01:20:38;;;;;;;5.20;3.90;;;;;;;17.84;100.00;100503.52;108768;1256;63766;-85
2023/05/30 01:23:30;;;;;;;8.30;3.80;;;;;;;17.85;100.00;100503.43;108248;1253;71316;-85
2023/05/30 01:26:26;;;;;;;5.60;3.60;;;;;;;17.84;100.00;100504.20;106705;1253;61096;-85
2023/05/30 01:28:54;;;;;;;6.80;4.50;;;;;;;17.84;100.00;100505.09;105958;1255;59533;-86
2023/05/30 01:31:23;;;;;;;6.70;3.80;;;;;;;17.83;100.00;100503.20;105848;1256;71696;-87
2023/05/30 01:33:56;;;;;;;6.40;3.60;;;;;;;17.84;100.00;100504.73;105775;1256;63975;-89
2023/05/30 01:36:23;;;;;;;6.20;3.80;;;;;;;17.86;100.00;100505.97;105763;1255;72578;-88
2023/05/30 01:38:50;;;;;;;8.50;3.70;;;;;;;17.88;100.00;100508.64;106184;1257;60426;-84
2023/05/30 01:41:25;;;;;;;4.40;4.00;;;;;;;17.89;100.00;100508.11;105830;1253;60959;-87
2023/05/30 01:44:03;;;;;;;4.30;3.40;;;;;;;17.88;100.00;100508.60;105938;1255;73078;-86
2023/05/30 01:46:36;;;;;;;5.60;4.20;;;;;;;17.86;100.00;100507.91;105754;1260;64015;-86
2023/05/30 01:49:21;;;;;;;5.70;3.60;;;;;;;17.86;100.00;100505.09;106151;1253;72774;-86
2023/05/30 01:52:01;;;;;;;4.80;3.80;;;;;;;17.87;100.00;100504.95;105978;1256;61861;-87
2023/05/30 01:54:30;;;;;;;4.90;3.90;;;;;;;17.93;100.00;100504.81;105815;1254;60018;-87
2023/05/30 01:57:02;;;;;;;7.30;4.80;;;;;;;17.95;100.00;100503.31;105845;1256;73013;-89
2023/05/30 01:59:29;;;;;;;4.30;3.90;;;;;;;17.98;100.00;100500.69;105925;1259;63812;-88
2023/05/30 02:01:56;;;;;;;3.10;2.90;;;;;;;18.01;100.00;100505.02;105863;1253;72697;-87
2023/05/30 02:04:24;;;;;;;5.40;3.80;;;;;;;18.03;100.00;100504.16;106501;1258;62282;-85
2023/05/30 02:06:51;;;;;;;4.20;3.90;;;;;;;18.03;100.00;100505.59;106156;1254;60904;-86
2023/05/30 02:09:18;;;;;;;4.30;3.60;;;;;;;18.04;100.00;100504.76;107000;1252;72481;-85
2023/05/30 02:11:45;;;;;;;5.30;4.10;;;;;;;18.04;100.00;100506.02;108322;1255;62649;-86
2023/05/30 02:14:12;;;;;;;10.30;7.30;;;;;;;18.05;100.00;100500.52;108979;1254;71373;-86
2023/05/30 02:16:40;;;;;;;4.70;4.30;;;;;;;18.07;100.00;100501.13;109358;1252;60689;-85
2023/05/30 02:19:15;;;;;;;4.40;4.00;;;;;;;18.09;100.00;100495.38;108693;1252;60518;-86
2023/05/30 02:21:43;;;;;;;5.20;3.70;;;;;;;18.08;100.00;100497.85;108345;1256;73931;-84
2023/05/30 02:24:10;;;;;;;6.80;4.00;;;;;;;18.07;100.00;100497.30;107939;1257;62542;-87
2023/05/30 02:26:38;;;;;;;4.30;3.90;;;;;;;18.05;100.00;100494.09;107791;1255;71390;-86
2023/05/30 02:29:05;;;;;;;8.20;3.80;;;;;;;18.03;100.00;100494.08;107334;1258;60852;-86
2023/05/30 02:31:33;;;;;;;8.70;5.10;;;;;;;18.02;100.00;100491.50;109229;1253;60525;-84
2023/05/30 02:34:00;;;;;;;4.90;3.70;;;;;;;18.03;100.00;100494.42;109444;1255;72572;-85
2023/05/30 02:36:27;;;;;;;4.90;3.90;;;;;;;18.05;100.00;100496.09;109630;1253;62640;-88
2023/05/30 02:38:54;;;;;;;7.60;4.30;;;;;;;18.05;100.00;100494.64;109719;1253;71087;-87
2023/05/30 02:41:23;;;;;;;6.50;4.30;;;;;;;18.02;100.00;100491.86;109627;1252;60726;-88
2023/05/30 02:43:56;;;;;;;5.60;4.60;;;;;;;18.03;100.00;100493.96;109468;1254;61884;-87
2023/05/30 02:46:23;;;;;;;6.10;4.90;;;;;;;18.03;100.00;100497.31;109476;1253;72565;-88
2023/05/30 02:48:50;;;;;;;5.70;4.50;;;;;;;18.04;100.00;100507.42;109271;1258;62744;-87
2023/05/30 02:51:17;;;;;;;6.70;4.80;;;;;;;18.06;100.00;100505.91;107578;1258;70311;-86
2023/05/30 02:53:46;;;;;;;10.10;5.30;;;;;;;18.06;100.00;100509.92;105975;1258;60444;-89
2023/05/30 02:56:13;;;;;;;4.60;3.50;;;;;;;18.05;100.00;100508.95;105692;1255;60423;-87
2023/05/30 02:58:59;;;;;;;6.40;4.30;;;;;;;18.03;100.00;100507.70;105941;1259;73830;-88
2023/05/30 03:01:50;;;;;;;8.20;5.70;;;;;;;18.02;100.00;100505.52;105881;1257;63782;-90
2023/05/30 03:04:17;;;;;;;6.20;3.80;;;;;;;18.02;100.00;100508.70;105923;1259;72627;-89
2023/05/30 03:06:50;;;;;;;6.80;4.20;;;;;;;18.02;100.00;100504.63;106706;1255;62032;-87
2023/05/30 03:09:22;;;;;;;7.60;4.10;;;;;;;18.02;100.00;100504.45;107560;1254;60473;-88
2023/05/30 03:11:49;;;;;;;7.60;4.20;;;;;;;17.98;100.00;100503.02;106092;1259;73850;-86
2023/05/30 03:14:16;;;;;;;6.40;4.20;;;;;;;17.94;100.00;100503.58;106058;1258;62763;-85
2023/05/30 03:16:44;;;;;;;10.10;4.80;;;;;;;17.93;100.00;100503.92;105630;1260;72448;-87
2023/05/30 03:19:13;;;;;;;5.60;4.00;;;;;;;17.93;100.00;100501.02;105788;1259;61171;-90
2023/05/30 03:21:40;;;;;;;6.90;5.20;;;;;;;17.96;100.00;100502.91;105626;1259;60552;-86
2023/05/30 03:24:07;;;;;;;7.10;4.20;;;;;;;17.97;100.00;100504.21;105898;1260;73775;-89
2023/05/30 03:26:39;;;;;;;3.70;3.20;;;;;;;17.99;100.00;100504.91;106900;1253;63700;-87
2023/05/30 03:29:07;;;;;;;8.10;5.40;;;;;;;18.00;100.00;100507.98;106415;1258;71675;-88
2023/05/30 03:31:35;;;;;;;5.60;3.80;;;;;;;18.00;100.00;100507.95;106604;1254;61931;-88
2023/05/30 03:34:02;;;;;;;6.90;3.50;;;;;;;18.02;100.00;100507.79;105920;1258;60448;-90
2023/05/30 03:36:29;;;;;;;4.30;3.50;;;;;;;18.01;100.00;100506.14;105736;1257;73824;-88
2023/05/30 03:38:56;;;;;;;4.20;3.10;;;;;;;17.99;100.00;100507.40;105770;1257;63946;-88
2023/05/30 03:41:24;;;;;;;4.70;3.50;;;;;;;17.98;100.00;100509.02;105740;1259;72375;-86
2023/05/30 03:43:51;;;;;;;4.90;3.10;;;;;;;18.01;100.00;100505.92;105526;1260;62154;-87
2023/05/30 03:46:20;;;;;;;4.70;3.10;;;;;;;18.06;100.00;100507.80;105642;1253;60445;-87
2023/05/30 03:48:47;;;;;;;4.00;3.20;;;;;;;18.10;100.00;100512.94;105502;1260;73611;-86
2023/05/30 03:51:14;;;;;;;5.00;3.10;;;;;;;18.15;100.00;100512.11;105808;1261;63877;-85
2023/05/30 03:53:44;;;;;;;5.00;3.00;;;;;;;18.19;100.00;100517.34;105798;1257;71711;-87
2023/05/30 03:56:11;;;;;;;4.80;3.40;;;;;;;18.21;100.00;100518.61;105768;1257;62136;-86
2023/05/30 03:58:39;;;;;;;5.60;3.10;;;;;;;18.21;100.00;100518.42;105846;1253;60627;-87
2023/05/30 04:01:07;;;;;;;3.10;2.50;;;;;;;18.21;100.00;100513.43;106316;1257;73898;-87
2023/05/30 04:03:37;;;;;;;6.00;3.00;;;;;;;18.24;100.00;100513.57;105761;1257;63149;-87
2023/05/30 04:06:08;;;;;;;5.60;3.10;;;;;;;18.23;100.00;100516.85;105698;1257;71511;-88
2023/05/30 04:08:39;;;;;;;4.30;3.50;;;;;;;18.18;100.00;100513.09;105714;1254;61704;-88
2023/05/30 04:11:07;;;;;;;3.70;3.30;;;;;;;18.11;100.00;100518.44;105806;1256;60406;-89
2023/05/30 04:13:35;;;;;;;3.50;2.80;;;;;;;18.05;100.00;100517.24;105751;1258;72738;-86
2023/05/30 04:16:02;;;;;;;3.60;3.00;;;;;;;17.98;100.00;100515.46;106022;1254;63540;-87
2023/05/30 04:18:29;;;;;;;5.40;3.30;;;;;;;17.94;100.00;100512.80;108035;1254;71135;-86
2023/05/30 04:20:56;;;;;;;5.00;3.30;;;;;;;17.92;100.00;100513.31;109231;1254;60737;-85
2023/05/30 04:23:24;;;;;;;6.20;3.00;;;;;;;17.91;100.00;100514.02;108998;1253;59385;-87
2023/05/30 04:25:51;;;;;;;5.10;3.50;;;;;;;17.92;100.00;100509.84;107429;1254;73698;-87
2023/05/30 04:28:21;;;;;;;6.00;3.40;;;;;;;17.97;100.00;100510.95;105877;1257;64016;-88
2023/05/30 04:30:48;;;;;;;4.80;3.50;;;;;;;17.99;100.00;100509.29;105779;1257;72654;-85
2023/05/30 04:33:17;;;;;;;3.40;2.80;;;;;;;18.03;100.00;100516.56;105892;1257;61920;-86
2023/05/30 04:35:44;;;;;;;5.50;3.00;;;;;;;18.05;100.00;100517.08;105708;1258;60509;-87
2023/05/30 04:38:19;;;;;;;8.50;4.70;;;;;;;18.04;100.00;100509.96;105906;1254;73879;-87
2023/05/30 04:40:51;;;;;;;4.20;3.70;;;;;;;18.05;100.00;100513.89;105821;1259;63985;-87
2023/05/30 04:43:19;;;;;;;4.30;2.70;;;;;;;18.09;100.00;100515.84;105827;1258;72582;-87
2023/05/30 04:45:49;;;;;;;4.70;3.30;;;;;;;18.12;100.00;100520.86;105757;1254;61852;-86
2023/05/30 04:48:21;;;;;;;4.10;3.40;;;;;;;18.12;100.00;100516.92;105810;1253;60523;-84
2023/05/30 04:50:48;;;;;;;4.40;3.90;;;;;;;18.13;100.00;100518.15;105798;1264;72733;-88
2023/05/30 04:53:16;;;;;;;5.10;2.90;;;;;;;18.06;100.00;100517.70;105833;1266;62269;-87
2023/05/30 04:55:44;;;;;;;4.90;4.50;;;;;;;17.99;100.00;100518.31;105731;1257;72730;-86
2023/05/30 04:58:11;;;;;;;3.10;2.60;;;;;;;17.96;100.00;100518.25;105613;1260;62015;-87
2023/05/30 05:00:38;;;;;;;4.30;3.90;;;;;;;17.96;100.00;100522.18;106040;1259;60453;-88
2023/05/30 05:03:05;;;;;;;4.50;3.70;;;;;;;17.97;100.00;100522.19;105911;1254;73837;-89
2023/05/30 05:05:33;;;;;;;5.50;3.80;;;;;;;18.00;100.00;100520.89;105855;1257;63630;-88
2023/05/30 05:08:00;;;;;;;6.00;3.30;;;;;;;17.99;100.00;100519.98;105800;1254;71326;-86
2023/05/30 05:10:27;;;;;;;3.80;3.20;;;;;;;17.98;100.00;100523.36;105898;1257;61763;-84
2023/05/30 05:12:54;;;;;;;6.30;2.90;;;;;;;18.00;100.00;100520.75;105728;1255;60547;-87
2023/05/30 05:15:21;;;;;;;2.90;2.70;;;;;;;18.02;100.00;100524.11;105786;1253;73874;-86
2023/05/30 05:17:51;;;;;;;3.90;3.20;;;;;;;18.05;100.00;100524.73;105635;1259;63899;-86
2023/05/30 05:20:18;;;;;;;4.80;3.50;;;;;;;18.09;100.00;100524.50;105809;1257;72745;-89
2023/05/30 05:22:45;;;;;;;4.60;3.20;;;;;;;18.12;100.00;100526.84;105761;1257;60555;-88
2023/05/30 05:25:12;;;;;;;3.50;3.20;;;;;;;18.14;100.00;100533.09;105763;1253;60462;-86
2023/05/30 05:27:40;;;;;;;4.00;2.90;;;;;;;18.14;100.00;100533.02;105684;1259;73674;-86
2023/05/30 05:30:08;;;;;;;6.30;3.70;;;;;;;18.13;100.00;100532.66;105935;1258;63818;-87
2023/05/30 05:32:38;;;;;;;3.00;2.70;;;;;;;18.08;100.00;100536.13;106000;1259;72453;-87
2023/05/30 05:35:07;;;;;;;6.90;4.00;;;;;;;18.03;100.00;100535.63;105859;1267;60602;-88
2023/05/30 05:37:34;;;;;;;6.30;3.10;;;;;;;18.00;100.00;100536.52;106965;1255;60342;-88
2023/05/30 05:40:05;;;;;;;3.50;3.20;;;;;;;17.96;100.00;100537.52;106207;1254;73881;-91
2023/05/30 05:42:33;;;;;;;4.60;3.40;;;;;;;17.95;100.00;100535.90;105831;1254;63843;-86
2023/05/30 05:45:00;;;;;;;3.20;2.70;;;;;;;17.94;100.00;100531.02;105878;1257;72602;-87
2023/05/30 05:47:27;;;;;;;4.30;3.70;;;;;;;17.94;100.00;100531.23;106143;1257;61810;-87
2023/05/30 05:49:55;;;;;;;6.00;3.10;;;;;;;17.94;100.00;100531.36;105850;1257;60344;-87
2023/05/30 05:52:22;;;;;;;5.60;3.00;;;;;;;17.95;100.00;100531.63;105844;1259;73919;-86
2023/05/30 05:54:49;;;;;;;4.40;3.20;;;;;;;17.95;100.00;100530.34;105839;1259;62481;-85
2023/05/30 05:57:16;;;;;;;7.00;6.40;;;;;;;17.99;100.00;100528.63;105856;1258;71088;-87
2023/05/30 05:59:43;;;;;;;12.30;11.00;;;;;;;18.04;100.00;100526.02;105905;1257;60989;-89
2023/05/30 06:02:10;;;;;;;11.70;9.40;;;;;;;18.11;100.00;100525.92;105923;1253;60441;-88
2023/05/30 06:04:38;;;;;;;9.50;8.50;;;;;;;18.18;100.00;100524.73;105825;1253;73658;-88
2023/05/30 06:07:05;;;;;;;7.10;4.20;;;;;;;18.23;100.00;100521.56;105845;1257;62356;-87
2023/05/30 06:09:36;;;;;;;4.00;3.70;;;;;;;18.29;100.00;100522.61;107232;1253;72917;-87
2023/05/30 06:12:03;;;;;;;5.90;3.50;;;;;;;18.34;100.00;100518.66;107228;1256;61774;-86
2023/05/30 06:14:33;;;;;;;6.80;4.30;;;;;;;18.37;100.00;100516.07;107202;1253;60052;-85
2023/05/30 06:17:01;;;;;;;5.40;4.00;;;;;;;18.36;100.00;100512.97;107272;1254;73852;-87
2023/05/30 06:19:29;;;;;;;5.40;3.90;;;;;;;18.33;100.00;100516.48;107118;1253;63926;-88
2023/05/30 06:21:56;;;;;;;4.50;3.70;;;;;;;18.31;100.00;100518.71;107133;1254;72529;-87
2023/05/30 06:24:24;;;;;;;4.80;4.40;;;;;;;18.29;100.00;100521.02;107169;1254;60518;-88
2023/05/30 06:26:51;;;;;;;15.10;5.70;;;;;;;18.30;100.00;100519.54;107427;1259;60364;-87
2023/05/30 06:29:19;;;;;;;32.50;29.20;;;;;;;18.29;100.00;100521.57;107545;1259;72796;-86
2023/05/30 06:31:46;;;;;;;7.10;5.20;;;;;;;18.28;100.00;100518.33;106724;1254;63712;-87
2023/05/30 06:34:13;;;;;;;5.60;5.10;;;;;;;18.27;100.00;100519.15;106211;1254;72448;-87
2023/05/30 06:36:40;;;;;;;6.00;4.40;;;;;;;18.29;100.00;100518.95;106487;1254;62081;-88
2023/05/30 06:39:09;;;;;;;6.10;4.80;;;;;;;18.29;100.00;100516.09;105946;1254;60407;-88
2023/05/30 06:41:35;;;;;;;4.70;4.30;;;;;;;18.25;100.00;100514.54;106222;1254;72395;-89
2023/05/30 06:44:02;;;;;;;9.90;5.70;;;;;;;18.21;100.00;100509.69;106271;1255;62710;-89
2023/05/30 06:46:30;;;;;;;6.80;5.40;;;;;;;18.19;100.00;100505.48;106704;1254;72525;-91
2023/05/30 06:48:57;;;;;;;8.80;4.60;;;;;;;18.19;100.00;100511.32;106257;1255;61092;-90
2023/05/30 06:51:24;;;;;;;5.70;4.60;;;;;;;18.20;100.00;100508.38;106061;1254;60552;-89
2023/05/30 06:53:51;;;;;;;11.70;8.50;;;;;;;18.21;100.00;100504.95;106188;1254;72539;-91
2023/05/30 06:56:18;;;;;;;8.00;7.10;;;;;;;18.20;100.00;100503.44;106525;1254;62427;-89
2023/05/30 06:58:46;;;;;;;13.30;12.00;;;;;;;18.20;100.00;100505.77;108522;1254;71242;-90
2023/05/30 07:01:12;;;;;;;9.20;6.50;;;;;;;18.19;100.00;100509.77;109299;1253;61957;-85
2023/05/30 07:04:05;;;;;;;12.20;8.80;;;;;;;18.19;100.00;100507.10;105490;1294;599211;-88
2023/05/30 07:06:33;;;;;;;6.00;5.50;;;;;;;18.16;100.00;100507.36;107949;1269;60637;-89
2023/05/30 07:09:02;;;;;;;10.30;6.50;;;;;;;18.18;100.00;100508.48;108410;1276;58890;-87
2023/05/30 07:11:32;;;;;;;9.50;7.50;;;;;;;18.20;100.00;100512.98;108256;1270;71081;-88
2023/05/30 07:14:01;;;;;;;6.70;5.20;;;;;;;18.25;100.00;100511.66;108488;1274;62843;-88
2023/05/30 07:16:28;;;;;;;4.80;4.30;;;;;;;18.31;100.00;100508.30;108643;1270;71127;-88
2023/05/30 07:18:57;;;;;;;5.80;4.60;;;;;;;18.37;100.00;100514.26;108348;1266;571616;-90
2023/05/30 07:21:44;;;;;;;11.00;8.30;;;;;;;18.44;100.00;100510.06;108586;1267;58765;-88
2023/05/30 07:24:12;;;;;;;5.60;5.00;;;;;;;18.47;100.00;100508.21;108984;1258;69843;-87
2023/05/30 07:26:39;;;;;;;6.20;4.90;;;;;;;18.53;100.00;100512.41;107736;1261;65641;-88
2023/05/30 07:29:07;;;;;;;7.70;5.60;;;;;;;18.58;100.00;100511.94;108111;1265;71565;-89
2023/05/30 07:31:36;;;;;;;7.10;5.90;;;;;;;18.60;100.00;100510.66;108062;1260;63338;-90
2023/05/30 07:34:04;;;;;;;6.10;4.80;;;;;;;18.63;100.00;100510.56;108353;1258;62909;-89
2023/05/30 07:36:32;;;;;;;6.50;5.70;;;;;;;18.66;100.00;100513.45;108748;1264;71805;-88
2023/05/30 07:39:01;;;;;;;43.00;33.10;;;;;;;18.68;100.00;100511.69;108033;1259;66450;-89
2023/05/30 07:41:29;;;;;;;7.80;5.20;;;;;;;18.67;100.00;100512.79;107516;1260;74894;-90
2023/05/30 07:44:06;;;;;;;7.30;4.80;;;;;;;18.66;100.00;100513.63;107792;1259;61289;-93
2023/05/30 07:46:35;;;;;;;4.80;4.40;;;;;;;18.64;100.00;100515.40;107860;1254;60670;-88
2023/05/30 07:49:10;;;;;;;5.50;4.40;;;;;;;18.61;100.00;100510.88;107201;1262;75593;-88
2023/05/30 07:51:38;;;;;;;5.60;4.20;;;;;;;18.61;100.00;100512.86;107224;1257;66273;-89
2023/05/30 07:54:17;;;;;;;6.00;3.90;;;;;;;18.62;100.00;100510.26;108334;1254;71633;-87
2023/05/30 07:56:46;;;;;;;7.00;4.10;;;;;;;18.59;100.00;100511.59;106825;1254;63164;-90
2023/05/30 07:59:14;;;;;;;5.50;4.20;;;;;;;18.57;100.00;100509.52;106869;1254;59680;-91
2023/05/30 08:01:48;;;;;;;9.20;4.80;;;;;;;18.60;100.00;100512.44;107574;1254;74402;-90
2023/05/30 08:04:19;;;;;;;6.40;4.80;;;;;;;18.63;100.00;100509.61;107005;1255;65973;-90
2023/05/30 08:06:47;;;;;;;7.90;4.20;;;;;;;18.62;100.00;100512.04;106550;1255;75045;-92
2023/05/30 08:09:16;;;;;;;6.40;4.50;;;;;;;18.64;100.00;100510.98;106286;1257;61258;-90
2023/05/30 08:11:44;;;;;;;4.90;4.40;;;;;;;18.64;100.00;100511.48;106552;1255;62509;-88
2023/05/30 08:14:11;;;;;;;5.50;3.60;;;;;;;18.66;100.00;100510.47;106797;1260;72362;-90
2023/05/30 08:16:46;;;;;;;6.70;5.00;;;;;;;18.68;100.00;100515.64;106667;1259;64968;-92
2023/05/30 08:19:17;;;;;;;7.30;4.20;;;;;;;18.69;100.00;100519.21;106699;1263;72751;-90
2023/05/30 08:21:46;;;;;;;7.20;4.40;;;;;;;18.70;100.00;100522.80;106316;1261;62202;-90
2023/05/30 08:24:17;;;;;;;6.30;3.80;;;;;;;18.69;100.00;100522.90;106217;1260;59568;-90
2023/05/30 08:26:47;;;;;;;7.30;4.10;;;;;;;18.68;100.00;100519.98;107724;1258;73192;-89
2023/05/30 08:29:16;;;;;;;6.10;4.30;;;;;;;18.71;100.00;100519.86;106834;1260;62820;-88
2023/05/30 08:31:45;;;;;;;12.50;6.60;;;;;;;18.72;100.00;100520.67;105822;1260;73761;-92
2023/05/30 08:34:15;;;;;;;4.50;4.10;;;;;;;18.72;100.00;100523.67;105996;1260;60466;-88
2023/05/30 08:36:43;;;;;;;5.30;3.90;;;;;;;18.72;100.00;100522.06;106151;1256;59737;-87
2023/05/30 08:39:12;;;;;;;4.00;3.30;;;;;;;18.70;100.00;100522.78;106441;1257;72159;-91
2023/05/30 08:41:42;;;;;;;98.80;89.80;;;;;;;18.72;100.00;100525.80;106581;1260;62988;-92
2023/05/30 08:44:10;;;;;;;6.50;5.90;;;;;;;18.72;100.00;100524.56;107454;1256;71470;-88
2023/05/30 08:46:39;;;;;;;11.40;6.30;;;;;;;18.71;100.00;100524.34;107471;1260;60943;-92
2023/05/30 08:49:22;;;;;;;6.10;3.70;;;;;;;18.68;100.00;100520.05;106982;1256;62165;-89
2023/05/30 08:51:53;;;;;;;10.30;8.20;;;;;;;18.67;100.00;100516.59;107198;1260;74084;-87
2023/05/30 08:55:31;;;;;;;18.60;16.70;;;;;;;18.68;100.00;100514.68;103971;1292;616478;-90
2023/05/30 08:58:21;;;;;;;13.40;10.90;;;;;;;18.66;100.00;100506.05;105817;1276;60720;-90
2023/05/30 09:00:50;;;;;;;7.70;6.30;;;;;;;18.69;100.00;100498.69;106272;1276;60336;-89
2023/05/30 09:03:20;;;;;;;6.20;3.80;;;;;;;18.71;100.00;100493.10;105902;1277;71128;-87
2023/05/30 09:05:47;;;;;;;5.40;4.30;;;;;;;18.75;100.00;100493.95;107140;1276;64209;-90
2023/05/30 09:08:19;;;;;;;2.90;2.60;;;;;;;18.85;100.00;100494.69;106285;1280;789541;-89
2023/05/30 09:10:48;;;;;;;4.20;2.80;;;;;;;18.93;100.00;100494.72;106107;1276;59762;-91
2023/05/30 09:13:17;;;;;;;3.00;2.60;;;;;;;19.02;100.00;100491.62;106852;1266;59199;-89
2023/05/30 09:15:44;;;;;;;3.90;3.60;;;;;;;19.14;100.00;100487.39;106571;1267;70852;-88
2023/05/30 09:18:13;;;;;;;3.40;3.10;;;;;;;19.26;100.00;100482.98;107001;1269;62526;-88
2023/05/30 09:20:43;;;;;;;2.70;2.50;;;;;;;19.41;100.00;100491.16;106776;1267;72171;-89
2023/05/30 09:23:14;;;;;;;3.00;2.60;;;;;;;19.51;100.00;100491.39;106535;1272;63089;-89
2023/05/30 09:25:45;;;;;;;4.90;3.10;;;;;;;19.58;100.00;100493.64;106039;1271;59727;-90
2023/05/30 09:28:13;;;;;;;4.40;2.30;;;;;;;19.62;100.00;100496.60;105502;1281;71905;-88
2023/05/30 09:30:54;;;;;;;3.00;2.80;;;;;;;19.65;100.00;100501.64;105562;1267;62666;-90
2023/05/30 09:33:55;;;;;;;5.30;3.40;;;;;;;19.67;100.00;100503.90;106492;1265;71170;-89
2023/05/30 09:36:24;;;;;;;3.50;3.20;;;;;;;19.64;100.00;100510.23;108848;1259;60901;-90
2023/05/30 09:38:58;;;;;;;3.40;3.20;;;;;;;19.59;100.00;100511.11;109008;1260;59120;-90
2023/05/30 09:41:29;;;;;;;3.70;3.40;;;;;;;19.53;100.00;100515.62;109088;1260;71839;-92
2023/05/30 09:43:59;;;;;;;6.80;6.00;;;;;;;19.49;100.00;100518.33;109088;1259;64571;-89
2023/05/30 09:46:28;;;;;;;5.20;3.60;;;;;;;19.48;100.00;100517.80;108884;1260;73041;-87
2023/05/30 09:49:09;;;;;;;4.30;3.90;;;;;;;19.49;100.00;100514.08;109098;1262;64149;-89
2023/05/30 09:53:30;;;;;;;5.40;4.80;;;;;;;19.59;100.00;100512.90;107134;1283;599297;-92
2023/05/30 09:55:59;;;;;;;6.70;6.10;;;;;;;19.57;100.00;100511.38;108871;1267;61390;-90
2023/05/30 09:59:07;;;;;;;18.10;16.40;;;;;;;19.57;100.00;100508.46;106316;1291;599931;-89
2023/05/30 10:01:42;;;;;;;5.30;4.90;;;;;;;19.60;100.00;100506.45;108778;1266;59866;-89
2023/05/30 10:04:20;;;;;;;5.70;5.20;;;;;;;19.58;100.00;100505.94;108155;1268;59041;-91
2023/05/30 10:09:38;;;;;;;10.40;6.00;;;;;;;19.55;100.00;100500.14;106913;1285;600291;-91
2023/05/30 10:12:07;;;;;;;9.50;5.90;;;;;;;19.53;100.00;100504.45;108494;1257;60395;-91
2023/05/30 10:14:35;;;;;;;7.10;5.20;;;;;;;19.50;100.00;100504.41;107870;1263;60707;-88
2023/05/30 10:17:06;;;;;;;7.50;5.40;;;;;;;19.48;100.00;100507.28;108402;1259;72498;-86
2023/05/30 10:19:56;;;;;;;5.30;4.80;;;;;;;19.43;100.00;100504.04;109140;1259;64571;-88
2023/05/30 10:22:29;;;;;;;5.50;5.10;;;;;;;19.40;100.00;100502.36;108644;1255;590863;-89
2023/05/30 10:24:59;;;;;;;6.70;4.60;;;;;;;19.40;100.00;100499.34;108604;1257;60917;-88
2023/05/30 10:27:30;;;;;;;7.60;5.50;;;;;;;19.36;100.00;100492.98;106682;1254;59777;-87
2023/05/30 10:30:06;;;;;;;4.80;4.50;;;;;;;19.33;100.00;100495.25;106676;1254;72019;-88
2023/05/30 10:32:39;;;;;;;5.70;5.20;;;;;;;19.31;100.00;100493.83;106603;1254;62392;-86
2023/05/30 10:35:13;;;;;;;5.30;4.50;;;;;;;19.34;100.00;100492.36;106979;1254;71865;-87
2023/05/30 10:37:44;;;;;;;5.10;4.80;;;;;;;19.34;100.00;100491.41;106544;1254;60876;-89
2023/05/30 10:40:33;;;;;;;5.10;4.70;;;;;;;19.34;100.00;100491.29;106466;1253;60460;-91
2023/05/30 10:43:04;;;;;;;5.10;4.70;;;;;;;19.34;100.00;100487.02;106235;1257;73207;-88
2023/05/30 10:46:00;;;;;;;8.70;5.30;;;;;;;19.35;100.00;100484.80;106632;1257;62981;-90
2023/05/30 10:48:49;;;;;;;5.20;4.90;;;;;;;19.42;100.00;100481.80;107787;1253;72241;-90
2023/05/30 10:51:17;;;;;;;6.00;5.50;;;;;;;19.50;100.00;100481.33;107809;1253;62929;-90
2023/05/30 10:53:46;;;;;;;6.00;5.40;;;;;;;19.57;100.00;100480.45;108521;1254;59717;-90
2023/05/30 10:56:39;;;;;;;5.80;5.20;;;;;;;19.63;100.00;100485.40;107804;1254;73025;-88
2023/05/30 10:59:14;;;;;;;6.20;5.70;;;;;;;19.66;100.00;100479.04;107407;1257;64690;-90
2023/05/30 11:02:04;;;;;;;6.70;6.00;;;;;;;19.70;100.00;100480.40;107716;1254;71614;-90
2023/05/30 11:04:42;;;;;;;5.60;5.20;;;;;;;19.73;100.00;100482.58;107505;1257;60922;-92
2023/05/30 11:07:13;;;;;;;6.20;5.60;;;;;;;19.69;100.00;100485.30;106933;1254;59963;-89
2023/05/30 11:09:42;;;;;;;8.20;7.50;;;;;;;19.65;100.00;100481.98;106437;1260;73162;-90
2023/05/30 11:12:22;;;;;;;8.80;8.00;;;;;;;19.63;100.00;100480.41;106131;1254;64013;-93
2023/05/30 11:14:55;;;;;;;8.00;7.40;;;;;;;19.54;100.00;100482.91;106600;1260;72917;-91
2023/05/30 11:17:37;;;;;;;9.70;8.40;;;;;;;19.49;100.00;100480.63;106255;1257;60808;-89
2023/05/30 11:20:07;;;;;;;8.70;8.00;;;;;;;19.45;100.00;100483.23;106100;1254;61879;-89
2023/05/30 11:22:37;;;;;;;9.10;8.30;;;;;;;19.42;100.00;100483.92;106396;1260;73120;-89
2023/05/30 11:25:26;;;;;;;9.40;8.60;;;;;;;19.39;100.00;100482.14;106287;1260;62441;-90
2023/05/30 11:28:03;;;;;;;9.10;8.30;;;;;;;19.30;100.00;100476.41;106122;1259;71164;-88